createdAt,value
2018-02-17T00:01:59.305Z,17.67
2018-02-17T00:04:26.817Z,17.87
2018-02-17T00:06:54.377Z,17.33
2018-02-17T00:09:21.894Z,18.57
2018-02-17T00:11:49.442Z,18.00
2018-02-17T00:14:16.960Z,18.17
2018-02-17T00:16:44.520Z,17.77
2018-02-17T00:19:12.069Z,18.17
2018-02-17T00:21:39.584Z,17.80
2018-02-17T00:24:07.116Z,18.20
2018-02-17T00:26:34.637Z,17.27
2018-02-17T00:29:02.213Z,18.13
2018-02-17T00:31:29.737Z,17.67
2018-02-17T00:33:57.261Z,17.70
2018-02-17T00:36:24.789Z,17.80
2018-02-17T00:38:52.341Z,18.63
2018-02-17T00:41:19.941Z,18.90
2018-02-17T00:43:47.517Z,19.00
2018-02-17T00:46:15.041Z,19.10
2018-02-17T00:48:42.616Z,19.00
2018-02-17T00:51:10.141Z,18.80
2018-02-17T00:53:37.677Z,17.60
2018-02-17T00:56:05.314Z,18.87
2018-02-17T00:58:32.844Z,18.70
2018-02-17T01:01:00.442Z,19.47
2018-02-17T01:03:27.961Z,18.73
2018-02-17T01:05:55.484Z,19.33
2018-02-17T01:08:23.012Z,18.83
2018-02-17T01:10:50.549Z,20.23
2018-02-17T01:13:18.141Z,19.00
2018-02-17T01:15:45.674Z,20.30
2018-02-17T01:18:13.256Z,20.33
2018-02-17T01:20:40.786Z,19.90
2018-02-17T01:23:08.397Z,20.70
2018-02-17T01:25:35.966Z,20.03
2018-02-17T01:28:03.485Z,21.27
2018-02-17T01:30:30.996Z,20.70
2018-02-17T01:32:58.623Z,20.20
2018-02-17T01:35:26.146Z,20.40
2018-02-17T01:37:53.741Z,19.27
2018-02-17T01:40:21.275Z,20.30
2018-02-17T01:42:48.878Z,20.27
2018-02-17T01:45:16.394Z,20.37
2018-02-17T01:47:44.000Z,20.03
2018-02-17T01:50:23.449Z,20.27
2018-02-17T01:52:50.969Z,20.83
2018-02-17T01:55:18.480Z,19.83
2018-02-17T01:57:45.988Z,20.40
2018-02-17T02:00:13.533Z,20.47
2018-02-17T02:02:41.121Z,20.60
2018-02-17T02:05:08.694Z,20.37
2018-02-17T02:07:36.230Z,19.80
2018-02-17T02:10:03.807Z,20.50
2018-02-17T02:12:31.333Z,20.10
2018-02-17T02:14:58.864Z,21.07
2018-02-17T02:17:26.395Z,20.23
2018-02-17T02:19:53.958Z,21.40
2018-02-17T02:22:21.519Z,20.23
2018-02-17T02:24:49.069Z,20.37
2018-02-17T02:27:16.592Z,21.23
2018-02-17T02:29:44.113Z,21.30
2018-02-17T02:32:11.637Z,19.47
2018-02-17T02:34:39.157Z,20.97
2018-02-17T02:37:06.682Z,19.33
2018-02-17T02:39:34.245Z,20.67
2018-02-17T02:42:01.776Z,20.23
2018-02-17T02:44:29.312Z,19.77
2018-02-17T02:46:56.922Z,20.67
2018-02-17T02:49:24.445Z,20.17
2018-02-17T02:51:52.014Z,20.60
2018-02-17T02:54:19.547Z,18.73
2018-02-17T02:56:47.093Z,19.63
2018-02-17T02:59:14.621Z,20.00
2018-02-17T03:01:42.182Z,20.80
2018-02-17T03:04:09.737Z,21.50
2018-02-17T03:06:37.262Z,19.37
2018-02-17T03:09:04.776Z,21.23
2018-02-17T03:11:32.290Z,20.73
2018-02-17T03:13:59.876Z,21.70
2018-02-17T03:16:27.392Z,19.40
2018-02-17T03:18:54.995Z,20.83
2018-02-17T03:21:22.540Z,21.10
2018-02-17T03:23:50.058Z,20.03
2018-02-17T03:26:17.600Z,20.20
2018-02-17T03:28:45.134Z,21.13
2018-02-17T03:31:12.689Z,21.73
2018-02-17T03:33:40.208Z,20.10
2018-02-17T03:36:07.740Z,19.50
2018-02-17T03:38:35.272Z,20.43
2018-02-17T03:41:02.832Z,20.83
2018-02-17T03:43:30.499Z,21.73
2018-02-17T03:45:58.013Z,19.93
2018-02-17T03:48:25.717Z,20.93
2018-02-17T03:50:53.248Z,20.67
2018-02-17T03:53:20.761Z,20.83
2018-02-17T03:55:48.292Z,19.90
2018-02-17T03:58:15.806Z,20.27
2018-02-17T04:00:43.413Z,21.40
2018-02-17T04:03:10.944Z,20.33
2018-02-17T04:05:38.461Z,19.57
2018-02-17T04:08:05.987Z,20.20
2018-02-17T04:10:33.549Z,20.07
2018-02-17T04:13:01.060Z,20.43
2018-02-17T04:15:28.578Z,21.50
2018-02-17T04:17:56.126Z,19.50
2018-02-17T04:20:23.641Z,20.53
2018-02-17T04:22:51.232Z,20.03
2018-02-17T04:25:18.753Z,20.10
2018-02-17T04:27:46.347Z,19.67
2018-02-17T04:30:13.860Z,19.90
2018-02-17T04:32:41.473Z,20.27
2018-02-17T04:35:09.044Z,20.77
2018-02-17T04:37:36.556Z,21.50
2018-02-17T04:40:06.433Z,20.37
2018-02-17T04:42:34.397Z,19.80
2018-02-17T04:48:04.215Z,21.73
2018-02-17T04:50:37.269Z,20.63
2018-02-17T04:56:07.850Z,20.87
2018-02-17T04:58:41.870Z,20.33
2018-02-17T05:01:19.288Z,20.23
2018-02-17T05:03:49.274Z,22.07
2018-02-17T05:06:23.271Z,20.33
2018-02-17T05:08:52.741Z,22.50
2018-02-17T05:11:20.294Z,20.10
2018-02-17T05:13:47.809Z,20.83
2018-02-17T05:16:26.138Z,20.77
2018-02-17T05:18:54.641Z,21.03
2018-02-17T05:21:22.966Z,21.33
2018-02-17T05:23:52.264Z,21.67
2018-02-17T05:26:19.801Z,21.03
2018-02-17T05:28:47.329Z,21.30
2018-02-17T05:31:16.759Z,21.90
2018-02-17T05:33:44.663Z,20.83
2018-02-17T05:36:26.032Z,21.60
2018-02-17T05:39:05.273Z,20.23
2018-02-17T05:41:33.240Z,21.97
2018-02-17T05:44:00.772Z,21.53
2018-02-17T05:46:31.684Z,21.73
2018-02-17T05:49:00.121Z,19.87
2018-02-17T05:51:27.633Z,18.97
2018-02-17T05:53:55.148Z,22.17
2018-02-17T05:56:22.705Z,20.33
2018-02-17T05:58:50.260Z,19.70
2018-02-17T06:01:17.782Z,20.20
2018-02-17T06:03:45.300Z,20.43
2018-02-17T06:06:12.821Z,20.30
2018-02-17T06:08:40.359Z,20.27
2018-02-17T06:11:07.898Z,20.37
2018-02-17T06:13:35.411Z,20.10
2018-02-17T06:16:02.968Z,19.87
2018-02-17T06:18:30.508Z,19.53
2018-02-17T06:20:58.034Z,20.50
2018-02-17T06:23:25.562Z,20.53
2018-02-17T06:25:53.093Z,21.43
2018-02-17T06:28:20.655Z,20.70
2018-02-17T06:30:48.167Z,19.70
2018-02-17T06:33:15.789Z,19.93
2018-02-17T06:35:43.346Z,20.00
2018-02-17T06:38:10.923Z,20.30
2018-02-17T06:40:38.440Z,21.10
2018-02-17T06:43:05.957Z,20.63
2018-02-17T06:45:33.473Z,20.37
2018-02-17T06:48:01.055Z,20.50
2018-02-17T06:50:28.828Z,21.50
2018-02-17T06:52:56.353Z,20.83
2018-02-17T06:55:23.930Z,20.63
2018-02-17T06:57:51.436Z,19.23
2018-02-17T07:00:19.059Z,19.13
2018-02-17T07:02:46.589Z,21.13
2018-02-17T07:05:14.166Z,20.10
2018-02-17T07:07:41.712Z,20.17
2018-02-17T07:10:09.297Z,20.07
2018-02-17T07:12:36.828Z,20.40
2018-02-17T07:15:04.404Z,20.67
2018-02-17T07:17:31.952Z,20.30
2018-02-17T07:19:59.524Z,19.53
2018-02-17T07:22:27.099Z,21.80
2018-02-17T07:24:54.627Z,20.00
2018-02-17T07:27:22.266Z,19.43
2018-02-17T07:29:49.777Z,21.17
2018-02-17T07:32:17.311Z,20.30
2018-02-17T07:34:44.852Z,19.67
2018-02-17T07:37:12.425Z,20.50
2018-02-17T07:39:39.940Z,20.67
2018-02-17T07:42:07.599Z,19.20
2018-02-17T07:44:35.155Z,20.83
2018-02-17T07:47:02.697Z,20.37
2018-02-17T07:49:30.226Z,19.87
2018-02-17T07:51:57.798Z,19.90
2018-02-17T07:54:25.321Z,19.87
2018-02-17T07:56:52.853Z,19.77
2018-02-17T07:59:20.390Z,20.90
2018-02-17T08:01:47.933Z,19.80
2018-02-17T08:04:15.521Z,20.67
2018-02-17T08:06:43.042Z,19.13
2018-02-17T08:09:10.578Z,20.17
2018-02-17T08:11:38.180Z,20.17
2018-02-17T08:14:05.749Z,18.67
2018-02-17T08:16:33.319Z,19.40
2018-02-17T08:19:00.837Z,20.03
2018-02-17T08:21:28.377Z,20.17
2018-02-17T08:23:55.897Z,19.47
2018-02-17T08:26:23.426Z,18.70
2018-02-17T08:28:50.942Z,19.27
2018-02-17T08:31:18.488Z,18.90
2018-02-17T08:33:46.002Z,18.53
2018-02-17T08:36:13.529Z,17.80
2018-02-17T08:38:41.049Z,18.63
2018-02-17T08:41:08.565Z,19.00
2018-02-17T08:43:36.171Z,19.10
2018-02-17T08:46:03.732Z,18.93
2018-02-17T08:48:31.299Z,19.17
2018-02-17T08:50:58.849Z,19.13
2018-02-17T08:53:26.364Z,19.90
2018-02-17T08:55:53.877Z,19.37
2018-02-17T08:58:21.417Z,17.67
2018-02-17T09:00:48.948Z,20.47
2018-02-17T09:03:16.483Z,20.47
2018-02-17T09:05:44.009Z,20.70
2018-02-17T09:08:11.538Z,19.83
2018-02-17T09:10:48.889Z,18.53
2018-02-17T09:13:16.521Z,19.00
2018-02-17T09:15:44.050Z,20.00
2018-02-17T09:18:11.589Z,18.93
2018-02-17T09:20:39.496Z,19.13
2018-02-17T09:23:07.053Z,18.10
2018-02-17T09:25:34.616Z,17.73
2018-02-17T09:28:02.129Z,18.47
2018-02-17T09:30:29.728Z,17.90
2018-02-17T09:32:57.244Z,18.33
2018-02-17T09:35:24.853Z,17.20
2018-02-17T09:37:52.410Z,17.43
2018-02-17T09:40:19.935Z,17.23
2018-02-17T09:42:47.445Z,16.87
2018-02-17T09:45:14.960Z,15.83
2018-02-17T09:47:42.490Z,16.80
2018-02-17T09:50:10.009Z,16.27
2018-02-17T09:52:37.609Z,16.20
2018-02-17T09:55:05.256Z,14.47
2018-02-17T09:57:32.909Z,15.53
2018-02-17T10:00:00.423Z,16.27
2018-02-17T10:02:28.029Z,15.47
2018-02-17T10:04:55.594Z,15.30
2018-02-17T10:07:23.114Z,14.47
2018-02-17T10:09:50.649Z,15.43
2018-02-17T10:12:18.204Z,16.30
2018-02-17T10:14:45.722Z,15.30
2018-02-17T10:17:13.290Z,16.73
2018-02-17T10:19:41.279Z,15.83
2018-02-17T10:22:08.825Z,17.07
2018-02-17T10:24:36.383Z,16.90
2018-02-17T10:27:03.895Z,17.53
2018-02-17T10:29:31.418Z,17.67
2018-02-17T10:31:58.976Z,17.43
2018-02-17T10:34:26.613Z,17.30
2018-02-17T10:36:54.142Z,16.70
2018-02-17T10:39:21.673Z,17.23
2018-02-17T10:41:49.197Z,16.53
2018-02-17T10:44:16.728Z,17.80
2018-02-17T10:46:44.253Z,17.10
2018-02-17T10:49:11.870Z,16.60
2018-02-17T10:51:39.391Z,15.77
2018-02-17T10:54:06.935Z,16.77
2018-02-17T10:56:34.545Z,17.53
2018-02-17T10:59:02.117Z,16.00
2018-02-17T11:01:29.633Z,15.50
2018-02-17T11:03:57.232Z,15.83
2018-02-17T11:06:24.748Z,16.37
2018-02-17T11:08:52.307Z,16.63
2018-02-17T11:11:19.834Z,16.10
2018-02-17T11:13:47.352Z,16.27
2018-02-17T11:16:14.869Z,15.87
2018-02-17T11:18:42.379Z,15.77
2018-02-17T11:21:09.931Z,15.40
2018-02-17T11:23:37.496Z,15.57
2018-02-17T11:26:05.037Z,15.87
2018-02-17T11:28:32.568Z,16.63
2018-02-17T11:31:00.085Z,16.00
2018-02-17T11:33:27.616Z,16.27
2018-02-17T11:35:55.213Z,15.67
2018-02-17T11:38:22.752Z,16.00
2018-02-17T11:40:50.346Z,16.50
2018-02-17T11:43:17.853Z,15.70
2018-02-17T11:45:45.398Z,15.70
2018-02-17T11:48:12.991Z,15.53
2018-02-17T11:50:40.552Z,14.87
2018-02-17T11:53:08.102Z,16.37
2018-02-17T11:55:35.641Z,15.77
2018-02-17T11:58:03.215Z,16.10
2018-02-17T12:00:30.729Z,16.20
2018-02-17T12:02:58.249Z,15.47
2018-02-17T12:05:25.825Z,15.23
2018-02-17T12:07:53.345Z,15.53
2018-02-17T12:10:20.880Z,17.00
2018-02-17T12:12:48.494Z,16.47
2018-02-17T12:15:16.024Z,16.00
2018-02-17T12:17:43.554Z,15.07
2018-02-17T12:20:11.070Z,15.53
2018-02-17T12:22:38.601Z,15.73
2018-02-17T12:25:06.195Z,14.33
2018-02-17T12:27:33.720Z,12.87
2018-02-17T12:30:01.253Z,11.90
2018-02-17T12:32:28.868Z,10.43
2018-02-17T12:34:56.377Z,11.33
2018-02-17T12:37:24.000Z,10.43
2018-02-17T12:39:51.535Z,8.77
2018-02-17T12:42:19.104Z,7.40
2018-02-17T12:44:46.671Z,7.83
2018-02-17T12:47:14.233Z,6.67
2018-02-17T12:49:41.759Z,6.63
2018-02-17T12:52:09.290Z,6.43
2018-02-17T12:54:36.845Z,6.70
2018-02-17T12:57:04.407Z,7.53
2018-02-17T12:59:32.041Z,8.17
2018-02-17T13:01:59.564Z,7.67
2018-02-17T13:04:27.122Z,9.97
2018-02-17T13:06:55.262Z,10.03
2018-02-17T13:09:22.889Z,10.17
2018-02-17T13:11:50.401Z,10.07
2018-02-17T13:14:17.908Z,9.57
2018-02-17T13:16:45.556Z,11.13
2018-02-17T13:19:13.096Z,9.83
2018-02-17T13:21:40.650Z,9.07
2018-02-17T13:24:08.181Z,10.33
2018-02-17T13:26:35.856Z,11.87
2018-02-17T13:29:03.353Z,12.67
2018-02-17T13:31:30.898Z,11.33
2018-02-17T13:33:58.420Z,11.13
2018-02-17T13:36:26.051Z,10.03
2018-02-17T13:38:53.569Z,10.30
2018-02-17T13:41:21.097Z,11.30
2018-02-17T13:43:48.727Z,10.70
2018-02-17T13:46:16.270Z,10.93
2018-02-17T13:48:43.788Z,11.07
2018-02-17T13:51:11.404Z,11.33
2018-02-17T13:53:38.964Z,9.97
2018-02-17T13:56:06.529Z,11.47
2018-02-17T13:58:34.049Z,11.30
2018-02-17T14:01:01.580Z,8.77
2018-02-17T14:03:29.096Z,9.10
2018-02-17T14:05:56.652Z,9.77
2018-02-17T14:08:24.182Z,10.93
2018-02-17T14:10:51.697Z,9.80
2018-02-17T14:13:19.233Z,8.90
2018-02-17T14:15:46.785Z,9.30
2018-02-17T14:18:14.278Z,9.57
2018-02-17T14:20:41.852Z,9.20
2018-02-17T14:23:09.407Z,9.37
2018-02-17T14:25:36.959Z,10.40
2018-02-17T14:28:04.467Z,9.77
2018-02-17T14:30:32.041Z,10.33
2018-02-17T14:32:59.572Z,11.50
2018-02-17T14:35:27.076Z,10.67
2018-02-17T14:37:54.592Z,10.77
2018-02-17T14:40:22.132Z,12.10
2018-02-17T14:42:49.671Z,10.60
2018-02-17T14:45:17.200Z,12.23
2018-02-17T14:47:44.728Z,11.60
2018-02-17T14:50:12.248Z,10.60
2018-02-17T14:52:39.769Z,9.40
2018-02-17T14:55:07.284Z,9.63
2018-02-17T14:57:34.807Z,10.33
2018-02-17T15:00:02.345Z,9.23
2018-02-17T15:02:29.869Z,11.17
2018-02-17T15:04:57.384Z,9.37
2018-02-17T15:07:25.870Z,9.70
2018-02-17T15:09:53.512Z,8.47
2018-02-17T15:12:21.007Z,7.37
2018-02-17T15:14:48.540Z,7.77
2018-02-17T15:17:16.113Z,6.53
2018-02-17T15:19:43.639Z,7.10
2018-02-17T15:22:11.241Z,6.10
2018-02-17T15:24:38.833Z,6.93
2018-02-17T15:27:06.347Z,6.20
2018-02-17T15:29:33.912Z,6.83
2018-02-17T15:32:01.424Z,6.60
2018-02-17T15:34:28.939Z,8.23
2018-02-17T15:36:56.512Z,9.23
2018-02-17T15:39:24.029Z,7.30
2018-02-17T15:41:51.590Z,6.80
2018-02-17T15:44:19.138Z,6.00
2018-02-17T15:46:46.729Z,5.33
2018-02-17T15:49:14.252Z,6.53
2018-02-17T15:51:41.791Z,5.37
2018-02-17T15:54:09.380Z,4.80
2018-02-17T15:56:36.894Z,5.33
2018-02-17T15:59:04.408Z,5.20
2018-02-17T16:01:31.933Z,4.80
2018-02-17T16:03:59.459Z,4.93
2018-02-17T16:06:26.967Z,4.43
2018-02-17T16:08:54.485Z,4.70
2018-02-17T16:11:21.997Z,4.00
2018-02-17T16:13:49.511Z,4.83
2018-02-17T16:16:17.055Z,5.07
2018-02-17T16:18:44.567Z,5.67
2018-02-17T16:21:12.101Z,5.57
2018-02-17T16:23:39.720Z,5.10
2018-02-17T16:26:07.239Z,6.50
2018-02-17T16:28:34.757Z,6.23
2018-02-17T16:31:02.269Z,7.30
2018-02-17T16:33:29.822Z,6.87
2018-02-17T16:35:57.358Z,6.40
2018-02-17T16:38:24.872Z,6.07
2018-02-17T16:40:52.391Z,7.40
2018-02-17T16:43:19.916Z,6.63
2018-02-17T16:45:47.432Z,6.30
2018-02-17T16:48:14.952Z,6.23
2018-02-17T16:50:42.471Z,6.63
2018-02-17T16:53:10.000Z,7.03
2018-02-17T16:55:37.607Z,6.80
2018-02-17T16:58:05.185Z,7.17
2018-02-17T17:00:32.681Z,7.13
2018-02-17T17:03:00.207Z,6.23
2018-02-17T17:05:27.727Z,6.57
2018-02-17T17:07:55.243Z,8.10
2018-02-17T17:10:22.791Z,7.43
2018-02-17T17:12:50.316Z,7.23
2018-02-17T17:15:18.330Z,6.17
2018-02-17T17:17:45.860Z,7.77
2018-02-17T17:20:13.373Z,7.27
2018-02-17T17:22:40.894Z,7.07
2018-02-17T17:25:08.413Z,9.07
2018-02-17T17:27:35.953Z,7.70
2018-02-17T17:30:03.472Z,8.40
2018-02-17T17:32:30.983Z,8.30
2018-02-17T17:34:58.501Z,7.70
2018-02-17T17:37:26.013Z,7.90
2018-02-17T17:39:53.524Z,8.47
2018-02-17T17:42:21.040Z,8.17
2018-02-17T17:44:48.553Z,8.40
2018-02-17T17:47:16.084Z,8.63
2018-02-17T17:49:43.600Z,8.50
2018-02-17T17:52:11.117Z,8.87
2018-02-17T17:54:38.632Z,8.47
2018-02-17T17:57:06.148Z,8.93
2018-02-17T17:59:33.672Z,9.23
2018-02-17T18:02:01.198Z,8.40
2018-02-17T18:04:28.724Z,8.87
2018-02-17T18:06:56.240Z,8.03
2018-02-17T18:09:23.748Z,8.43
2018-02-17T18:11:51.274Z,9.13
2018-02-17T18:14:18.913Z,8.30
2018-02-17T18:16:46.421Z,9.47
2018-02-17T18:19:13.946Z,8.53
2018-02-17T18:21:41.461Z,9.00
2018-02-17T18:24:08.978Z,8.33
2018-02-17T18:26:36.524Z,8.73
2018-02-17T18:29:04.020Z,7.90
2018-02-17T18:31:31.537Z,8.43
2018-02-17T18:33:59.048Z,8.73
2018-02-17T18:36:26.568Z,7.87
2018-02-17T18:38:54.102Z,7.70
2018-02-17T18:41:21.620Z,9.00
2018-02-17T18:43:49.133Z,7.40
2018-02-17T18:46:16.645Z,7.53
2018-02-17T18:48:44.168Z,8.47
2018-02-17T18:51:11.685Z,6.70
2018-02-17T18:53:39.215Z,8.00
2018-02-17T18:56:06.732Z,7.67
2018-02-17T18:58:34.246Z,7.60
2018-02-17T19:01:01.772Z,7.60
2018-02-17T19:03:29.293Z,7.03
2018-02-17T19:05:56.822Z,7.23
2018-02-17T19:08:24.342Z,7.50
2018-02-17T19:10:51.853Z,8.03
2018-02-17T19:13:19.366Z,8.10
2018-02-17T19:15:46.875Z,9.30
2018-02-17T19:18:14.397Z,8.73
2018-02-17T19:20:41.919Z,8.70
2018-02-17T19:23:09.477Z,8.43
2018-02-17T19:25:37.002Z,8.73
2018-02-17T19:28:04.522Z,8.90
2018-02-17T19:30:32.039Z,9.40
2018-02-17T19:32:59.555Z,9.83
2018-02-17T19:35:27.068Z,9.87
2018-02-17T19:37:54.591Z,10.10
2018-02-17T19:40:22.108Z,8.60
2018-02-17T19:42:49.629Z,9.20
2018-02-17T19:45:17.226Z,9.17
2018-02-17T19:47:44.746Z,9.83
2018-02-17T19:50:12.262Z,10.87
2018-02-17T19:52:39.809Z,11.50
2018-02-17T19:55:07.346Z,12.80
2018-02-17T19:57:34.862Z,11.90
2018-02-17T20:00:02.386Z,11.10
2018-02-17T20:02:29.917Z,11.63
2018-02-17T20:04:57.433Z,11.23
2018-02-17T20:07:24.953Z,11.10
2018-02-17T20:09:52.465Z,10.30
2018-02-17T20:12:19.972Z,8.33
2018-02-17T20:14:47.485Z,10.10
2018-02-17T20:17:15.001Z,9.43
2018-02-17T20:19:42.514Z,8.57
2018-02-17T20:22:10.027Z,9.13
2018-02-17T20:24:37.567Z,9.33
2018-02-17T20:27:05.078Z,8.57
2018-02-17T20:29:32.588Z,10.10
2018-02-17T20:32:00.109Z,10.77
2018-02-17T20:34:27.633Z,10.53
2018-02-17T20:36:55.160Z,10.77
2018-02-17T20:39:22.668Z,10.77
2018-02-17T20:41:50.229Z,10.77
2018-02-17T20:44:17.746Z,11.03
2018-02-17T20:46:45.278Z,10.73
2018-02-17T20:49:12.821Z,10.37
2018-02-17T20:51:40.333Z,10.90
2018-02-17T20:54:07.836Z,9.57
2018-02-17T20:56:35.354Z,9.63
2018-02-17T20:59:02.882Z,10.03
2018-02-17T21:01:30.489Z,8.73
2018-02-17T21:03:57.980Z,8.57
2018-02-17T21:06:25.484Z,9.23
2018-02-17T21:08:52.996Z,8.50
2018-02-17T21:11:20.505Z,7.87
2018-02-17T21:13:48.028Z,7.90
2018-02-17T21:16:15.537Z,8.97
2018-02-17T21:18:43.356Z,8.57
2018-02-17T21:21:10.861Z,9.10
2018-02-17T21:23:38.397Z,8.83
2018-02-17T21:26:05.953Z,8.83
2018-02-17T21:28:33.487Z,9.23
2018-02-17T21:31:01.006Z,8.93
2018-02-17T21:33:28.610Z,8.50
2018-02-17T21:35:56.121Z,8.90
2018-02-17T21:38:23.737Z,9.90
2018-02-17T21:40:51.241Z,9.93
2018-02-17T21:43:18.774Z,8.73
2018-02-17T21:45:46.392Z,9.43
2018-02-17T21:48:13.900Z,8.40
2018-02-17T21:50:41.412Z,8.80
2018-02-17T21:53:08.948Z,8.70
2018-02-17T21:55:36.500Z,8.37
2018-02-17T21:58:04.032Z,8.03
2018-02-17T22:00:31.555Z,8.83
2018-02-17T22:02:59.122Z,8.77
2018-02-17T22:05:26.634Z,8.33
2018-02-17T22:07:54.159Z,8.30
2018-02-17T22:10:21.795Z,7.57
2018-02-17T22:12:49.309Z,7.90
2018-02-17T22:15:16.830Z,6.93
2018-02-17T22:17:44.345Z,7.87
2018-02-17T22:20:11.931Z,7.47
2018-02-17T22:22:39.492Z,8.33
2018-02-17T22:25:07.053Z,7.83
2018-02-17T22:27:34.573Z,8.30
2018-02-17T22:30:02.182Z,7.57
2018-02-17T22:32:29.706Z,7.53
2018-02-17T22:34:57.227Z,7.33
2018-02-17T22:37:24.737Z,7.00
2018-02-17T22:39:52.247Z,6.73
2018-02-17T22:42:19.877Z,7.07
2018-02-17T22:44:47.400Z,7.20
2018-02-17T22:47:14.936Z,6.80
2018-02-17T22:49:42.478Z,6.60
2018-02-17T22:52:09.993Z,6.80
2018-02-17T22:54:37.506Z,6.47
2018-02-17T22:57:05.022Z,7.50
2018-02-17T22:59:32.550Z,7.00
2018-02-17T23:02:00.067Z,7.00
2018-02-17T23:04:27.589Z,7.80
2018-02-17T23:06:55.162Z,8.93
2018-02-17T23:09:22.672Z,8.70
2018-02-17T23:11:50.978Z,8.57
2018-02-17T23:14:18.500Z,8.27
2018-02-17T23:16:46.017Z,8.03
2018-02-17T23:19:13.519Z,9.83
2018-02-17T23:21:41.054Z,9.40
2018-02-17T23:24:08.591Z,9.20
2018-02-17T23:26:36.129Z,9.47
2018-02-17T23:29:03.645Z,9.83
2018-02-17T23:31:31.170Z,9.77
2018-02-17T23:33:58.697Z,10.23
2018-02-17T23:36:26.218Z,10.70
2018-02-17T23:38:53.729Z,10.80
2018-02-17T23:41:21.249Z,11.10
2018-02-17T23:43:48.774Z,11.50
2018-02-17T23:46:16.295Z,10.93
2018-02-17T23:48:43.809Z,11.20
2018-02-17T23:51:11.340Z,11.10
2018-02-17T23:53:38.861Z,10.70
2018-02-17T23:56:06.380Z,10.50
2018-02-17T23:58:33.902Z,10.70
